Time;durP1;ratioP1;P1;durP2;ratioP2;P2;SDS_P1;SDS_P2;PMS_P1;PMS_P2;Temp;Humidity;BMP_temperature;BMP_pressure;BME280_temperature;BME280_humidity;BME280_pressure;Samples;Min_cycle;Max_cycle;Signal;HPM_P1;HPM_P2
2023/06/10 00:00:41;;;;;;;7.90;3.60;;;;;;;20.83;48.88;99127.76;79478;1295;3011512;-61
2023/06/10 00:03:10;;;;;;;10.10;3.70;;;;;;;20.76;49.64;99126.92;78315;1300;3054291;-61
2023/06/10 00:05:38;;;;;;;6.90;4.10;;;;;;;20.64;50.13;99125.33;79492;1305;3012722;-60
2023/06/10 00:08:10;;;;;;;9.70;4.20;;;;;;;20.56;50.61;99128.43;79474;1301;3011345;-62
2023/06/10 00:10:38;;;;;;;8.60;4.20;;;;;;;20.43;51.03;99121.14;78215;1298;3069633;-63
2023/06/10 00:13:08;;;;;;;10.00;4.40;;;;;;;20.33;51.42;99119.03;79425;1296;3013271;-62
2023/06/10 00:15:37;;;;;;;13.80;4.60;;;;;;;20.33;51.10;99117.84;78932;1301;3013087;-60
2023/06/10 00:18:04;;;;;;;13.10;4.40;;;;;;;20.26;51.52;99119.75;79480;1301;3018413;-60
2023/06/10 00:20:31;;;;;;;9.20;4.60;;;;;;;20.21;51.80;99123.68;79508;1301;3011774;-62
2023/06/10 00:23:01;;;;;;;10.90;4.80;;;;;;;20.23;51.44;99118.41;78261;1301;3028912;-63
2023/06/10 00:25:27;;;;;;;11.40;4.60;;;;;;;20.19;51.98;99120.37;79409;1298;3012919;-59
2023/06/10 00:27:55;;;;;;;7.20;4.10;;;;;;;20.18;51.80;99116.38;79466;1296;3011667;-59
2023/06/10 00:30:23;;;;;;;17.40;4.00;;;;;;;20.15;51.86;99112.06;78203;1301;3056780;-61
2023/06/10 00:32:50;;;;;;;10.90;3.90;;;;;;;20.13;51.93;99114.96;79506;1296;3013833;-61
2023/06/10 00:35:16;;;;;;;9.40;4.50;;;;;;;20.09;52.09;99114.48;79384;1296;3011464;-63
2023/06/10 00:37:45;;;;;;;14.40;4.40;;;;;;;20.07;51.82;99109.89;78099;1300;3050722;-62
2023/06/10 00:40:12;;;;;;;9.50;4.10;;;;;;;20.05;51.76;99105.45;79422;1299;3013424;-61
2023/06/10 00:42:39;;;;;;;8.90;3.90;;;;;;;20.02;52.03;99104.58;79447;1299;3011727;-61
2023/06/10 00:45:07;;;;;;;10.50;4.10;;;;;;;19.98;52.23;99098.73;78223;1301;3055688;-60
2023/06/10 00:47:35;;;;;;;7.30;4.40;;;;;;;19.97;52.33;99100.79;79430;1300;3012887;-63
2023/06/10 00:50:06;;;;;;;8.90;4.70;;;;;;;19.92;52.75;99102.25;79108;1299;3013962;-61
2023/06/10 00:52:33;;;;;;;9.50;4.20;;;;;;;19.88;52.18;99098.87;79487;1295;3013446;-63
2023/06/10 00:54:59;;;;;;;12.50;4.60;;;;;;;19.84;52.37;99094.48;79288;1296;3011682;-61
2023/06/10 00:57:27;;;;;;;13.10;4.60;;;;;;;19.82;52.77;99095.41;78181;1296;3068686;-60
2023/06/10 00:59:54;;;;;;;11.40;4.60;;;;;;;19.78;52.65;99094.02;79421;1298;3013029;-61
2023/06/10 01:02:20;;;;;;;10.20;4.40;;;;;;;19.77;52.51;99095.33;79416;1300;3013902;-61
2023/06/10 01:04:49;;;;;;;7.80;3.90;;;;;;;19.76;52.84;99095.66;78040;1301;3028766;-61
2023/06/10 01:07:19;;;;;;;8.90;4.30;;;;;;;19.73;53.01;99096.69;79476;1301;3013383;-61
2023/06/10 01:09:47;;;;;;;7.80;4.20;;;;;;;19.73;52.44;99099.02;78252;1301;3053551;-59
2023/06/10 01:12:33;;;;;;;9.60;3.90;;;;;;;19.71;52.43;99097.58;79312;1302;3013715;-62
2023/06/10 01:15:01;;;;;;;9.80;4.20;;;;;;;19.67;52.70;99096.73;78133;1301;3056876;-60
2023/06/10 01:17:30;;;;;;;11.40;4.30;;;;;;;19.63;52.56;99098.92;79482;1301;3014219;-62
2023/06/10 01:19:57;;;;;;;6.90;3.90;;;;;;;19.65;52.48;99094.20;79357;1301;3012045;-61
2023/06/10 01:22:32;;;;;;;9.20;4.10;;;;;;;19.63;52.40;99089.20;78341;1303;3052681;-62
2023/06/10 01:24:58;;;;;;;8.80;4.40;;;;;;;19.63;52.41;99090.27;79324;1300;3012792;-63
2023/06/10 01:27:29;;;;;;;9.10;4.30;;;;;;;19.62;52.42;99085.56;78233;1298;3068488;-61
2023/06/10 01:30:03;;;;;;;8.20;3.80;;;;;;;19.60;52.55;99086.80;79467;1295;3011950;-62
2023/06/10 01:32:37;;;;;;;12.60;4.00;;;;;;;19.58;52.52;99087.61;78070;1301;3057877;-59
2023/06/10 01:35:05;;;;;;;8.20;3.80;;;;;;;19.59;52.39;99084.23;79271;1296;3013090;-59
2023/06/10 01:37:33;;;;;;;9.00;4.00;;;;;;;19.63;51.95;99084.80;78075;1301;3052425;-61
2023/06/10 01:40:00;;;;;;;8.20;3.50;;;;;;;19.65;52.03;99081.37;79492;1300;3013846;-61
2023/06/10 01:42:28;;;;;;;8.60;4.00;;;;;;;19.66;51.98;99079.67;79317;1296;3011920;-62
2023/06/10 01:44:55;;;;;;;9.60;3.60;;;;;;;19.65;52.21;99079.80;78009;1301;3068974;-62
2023/06/10 01:47:22;;;;;;;5.30;3.60;;;;;;;19.62;52.43;99081.66;79446;1299;3012917;-58
2023/06/10 01:49:49;;;;;;;8.30;3.60;;;;;;;19.59;52.52;99081.29;79419;1299;3011837;-61
2023/06/10 01:52:17;;;;;;;7.20;3.30;;;;;;;19.59;52.38;99085.35;78194;1298;3028810;-61
2023/06/10 01:54:44;;;;;;;7.10;3.40;;;;;;;19.62;52.09;99086.83;79529;1302;3012450;-62
2023/06/10 01:57:12;;;;;;;10.40;3.60;;;;;;;19.66;51.91;99091.70;79531;1299;3011561;-62
2023/06/10 01:59:42;;;;;;;6.70;3.80;;;;;;;19.70;51.84;99092.21;78303;1294;3070638;-59
2023/06/10 02:02:08;;;;;;;6.40;3.30;;;;;;;19.72;51.77;99093.89;79422;1296;3011827;-61
2023/06/10 02:04:35;;;;;;;10.90;3.50;;;;;;;19.73;51.80;99094.70;79499;1294;3011695;-62
2023/06/10 02:07:05;;;;;;;7.10;3.60;;;;;;;19.74;51.88;99088.94;78334;1298;3052863;-63
2023/06/10 02:09:34;;;;;;;7.20;3.90;;;;;;;19.73;52.06;99093.29;79463;1294;3012966;-62
2023/06/10 02:12:03;;;;;;;12.00;3.30;;;;;;;19.71;52.54;99095.82;78314;1297;3029798;-61
2023/06/10 02:14:32;;;;;;;10.00;3.40;;;;;;;19.71;52.44;99094.81;79608;1298;3013490;-64
2023/06/10 02:17:01;;;;;;;10.30;3.60;;;;;;;19.69;52.76;99096.41;78944;1299;3011825;-61
2023/06/10 02:19:28;;;;;;;8.30;3.70;;;;;;;19.70;52.52;99094.52;79531;1297;3013202;-62
2023/06/10 02:21:55;;;;;;;13.40;4.10;;;;;;;19.73;52.28;99095.79;79382;1302;3011547;-63
2023/06/10 02:24:22;;;;;;;7.40;4.30;;;;;;;19.76;52.29;99091.97;78282;1298;3028900;-59
2023/06/10 02:26:50;;;;;;;13.40;3.60;;;;;;;19.77;52.30;99094.70;79487;1296;3013340;-63
2023/06/10 02:29:17;;;;;;;10.00;4.20;;;;;;;19.79;52.10;99094.98;79542;1295;3011698;-61
2023/06/10 02:31:45;;;;;;;6.50;3.50;;;;;;;19.81;52.08;99096.05;78188;1298;3069298;-62
2023/06/10 02:34:11;;;;;;;8.70;3.30;;;;;;;19.83;51.84;99097.08;79467;1295;3012978;-62
2023/06/10 02:36:38;;;;;;;8.60;3.50;;;;;;;19.85;51.84;99093.48;79478;1295;3011865;-61
2023/06/10 02:39:07;;;;;;;8.70;3.50;;;;;;;19.89;52.06;99094.01;78307;1298;3028705;-61
2023/06/10 02:41:33;;;;;;;9.80;3.90;;;;;;;19.91;52.19;99091.14;79502;1297;3014829;-62
2023/06/10 02:44:01;;;;;;;6.00;3.80;;;;;;;19.93;52.04;99094.25;79674;1298;3011444;-64
2023/06/10 02:46:30;;;;;;;9.90;4.10;;;;;;;19.95;52.41;99096.52;78213;1298;3069099;-61
2023/06/10 02:48:56;;;;;;;8.10;3.80;;;;;;;19.97;52.54;99094.96;79466;1299;3012846;-61
2023/06/10 02:51:24;;;;;;;7.00;3.10;;;;;;;20.00;52.16;99096.80;79614;1295;3011604;-60
2023/06/10 02:53:59;;;;;;;9.50;3.30;;;;;;;20.02;52.41;99093.84;78300;1305;3053974;-62
2023/06/10 02:56:26;;;;;;;7.60;3.60;;;;;;;20.07;52.09;99092.65;79519;1301;3013110;-64
2023/06/10 02:58:53;;;;;;;11.20;3.80;;;;;;;20.06;52.26;99093.05;79438;1295;3013160;-61
2023/06/10 03:01:21;;;;;;;7.70;3.60;;;;;;;20.08;52.06;99092.13;78257;1298;3026591;-62
2023/06/10 03:04:00;;;;;;;5.70;3.40;;;;;;;20.09;52.23;99086.76;78324;1298;3052215;-63
2023/06/10 03:06:27;;;;;;;12.10;4.00;;;;;;;20.09;51.94;99086.39;79436;1295;3012971;-62
2023/06/10 03:09:00;;;;;;;7.60;3.50;;;;;;;20.10;51.92;99085.75;78857;1295;3012998;-61
2023/06/10 03:11:26;;;;;;;7.50;3.30;;;;;;;20.10;51.91;99087.45;79371;1295;3013775;-59
2023/06/10 03:13:53;;;;;;;6.60;3.70;;;;;;;20.15;51.79;99084.63;79485;1299;3011640;-61
2023/06/10 03:16:22;;;;;;;11.60;4.50;;;;;;;20.18;51.75;99086.50;78176;1301;3052516;-61
2023/06/10 03:18:49;;;;;;;12.30;3.50;;;;;;;20.19;51.55;99081.07;77655;1295;3039633;-61
2023/06/10 03:21:15;;;;;;;8.10;3.80;;;;;;;20.21;51.46;99075.27;79364;1300;3014117;-61
2023/06/10 03:23:42;;;;;;;6.20;3.90;;;;;;;20.24;51.13;99074.98;79326;1295;3012720;-62
2023/06/10 03:26:12;;;;;;;10.20;3.80;;;;;;;20.22;51.53;99072.34;78187;1300;3050437;-61
2023/06/10 03:28:39;;;;;;;8.70;3.90;;;;;;;20.22;51.68;99075.37;79447;1300;3013774;-62
2023/06/10 03:31:09;;;;;;;9.10;3.60;;;;;;;20.20;51.80;99076.33;78432;1295;3027214;-64
2023/06/10 03:33:37;;;;;;;7.60;3.70;;;;;;;20.23;51.73;99075.25;79503;1294;3013707;-64
2023/06/10 03:36:04;;;;;;;7.20;3.70;;;;;;;20.27;51.60;99076.02;79404;1298;3011595;-62
2023/06/10 03:38:32;;;;;;;7.70;3.50;;;;;;;20.29;51.65;99079.25;78178;1300;3049405;-60
2023/06/10 03:41:00;;;;;;;6.70;3.60;;;;;;;20.29;51.71;99070.91;79374;1295;3020998;-60
2023/06/10 03:43:27;;;;;;;10.10;4.00;;;;;;;20.27;51.69;99071.14;79417;1309;3011801;-62
2023/06/10 03:45:55;;;;;;;10.70;4.10;;;;;;;20.30;51.83;99065.61;78310;1301;3052280;-62
2023/06/10 03:48:22;;;;;;;8.80;3.90;;;;;;;20.34;51.59;99070.58;79241;1298;3012981;-62
2023/06/10 03:50:52;;;;;;;6.30;3.60;;;;;;;20.36;51.82;99068.75;79469;1296;3012919;-63
2023/06/10 03:53:20;;;;;;;14.40;3.50;;;;;;;20.41;51.55;99074.80;78308;1295;3049322;-58
2023/06/10 03:55:48;;;;;;;8.20;3.80;;;;;;;20.47;51.54;99076.05;79381;1301;3013107;-62
2023/06/10 03:58:17;;;;;;;5.70;3.80;;;;;;;20.52;51.60;99076.86;79435;1296;3011670;-61
2023/06/10 04:00:46;;;;;;;9.10;3.80;;;;;;;20.54;51.44;99078.66;78237;1301;3054078;-61
2023/06/10 04:03:16;;;;;;;8.70;3.90;;;;;;;20.58;51.35;99073.80;79500;1295;3013095;-59
2023/06/10 04:05:50;;;;;;;6.30;3.90;;;;;;;20.64;51.52;99072.98;78142;1299;3056976;-60
2023/06/10 04:08:17;;;;;;;12.60;4.00;;;;;;;20.66;51.56;99073.39;79500;1295;3013690;-62
2023/06/10 04:10:44;;;;;;;10.20;4.50;;;;;;;20.69;51.83;99076.64;79412;1296;3013043;-63
2023/06/10 04:13:14;;;;;;;8.50;3.60;;;;;;;20.75;51.57;99078.95;78083;1301;3052789;-62
2023/06/10 04:15:49;;;;;;;13.00;4.10;;;;;;;20.80;51.51;99079.27;78888;1299;3011487;-61
2023/06/10 04:18:17;;;;;;;8.40;3.50;;;;;;;20.85;51.30;99078.23;79494;1295;3011771;-61
2023/06/10 04:20:44;;;;;;;8.60;3.90;;;;;;;20.89;51.22;99074.20;79519;1295;3013563;-62
2023/06/10 04:23:13;;;;;;;9.10;3.90;;;;;;;20.98;50.94;99075.50;78111;1301;3056517;-63
2023/06/10 04:25:40;;;;;;;7.40;3.60;;;;;;;21.08;50.84;99076.45;79481;1295;3013378;-59
2023/06/10 04:28:07;;;;;;;8.40;3.60;;;;;;;21.15;50.63;99079.02;79438;1295;3013291;-61
2023/06/10 04:30:35;;;;;;;10.20;3.50;;;;;;;21.22;50.33;99080.59;78225;1295;3052802;-60
2023/06/10 04:33:02;;;;;;;13.60;3.90;;;;;;;21.30;50.15;99083.11;79437;1295;3013333;-61
2023/06/10 04:35:30;;;;;;;14.50;4.00;;;;;;;21.37;50.06;99083.13;79392;1295;3011812;-62
2023/06/10 04:37:59;;;;;;;7.70;3.70;;;;;;;21.48;49.88;99082.15;78126;1301;3056912;-61
2023/06/10 04:40:26;;;;;;;11.80;3.60;;;;;;;21.58;49.54;99082.45;79376;1295;3013967;-61
2023/06/10 04:42:53;;;;;;;12.80;3.90;;;;;;;21.68;49.14;99077.71;79450;1295;3013154;-62
2023/06/10 04:45:21;;;;;;;5.70;3.20;;;;;;;21.79;48.88;99080.07;78075;1300;3054721;-59
2023/06/10 04:47:48;;;;;;;7.30;3.10;;;;;;;21.89;48.50;99079.07;79527;1300;3021146;-63
2023/06/10 04:50:15;;;;;;;8.30;3.50;;;;;;;22.00;48.38;99076.41;79400;1298;3011706;-62
2023/06/10 04:52:44;;;;;;;11.80;3.70;;;;;;;22.10;48.09;99072.42;77999;1297;3055909;-61
2023/06/10 04:55:11;;;;;;;5.90;3.30;;;;;;;22.20;48.00;99070.83;79460;1296;3018849;-59
2023/06/10 04:57:38;;;;;;;6.30;3.20;;;;;;;22.32;47.64;99071.59;79398;1295;3013589;-61
2023/06/10 05:00:08;;;;;;;5.90;3.50;;;;;;;22.42;47.38;99071.13;78265;1300;3029390;-58
2023/06/10 05:02:34;;;;;;;7.70;3.20;;;;;;;22.50;47.19;99068.39;79486;1294;3013551;-60
2023/06/10 05:05:01;;;;;;;15.50;3.30;;;;;;;22.57;47.08;99066.33;79484;1295;3013538;-64
2023/06/10 05:07:29;;;;;;;10.50;3.00;;;;;;;22.65;47.15;99058.48;78203;1299;3056727;-62
2023/06/10 05:09:56;;;;;;;9.60;3.70;;;;;;;22.74;47.21;99057.49;79474;1295;3013445;-62
2023/06/10 05:12:22;;;;;;;10.90;3.40;;;;;;;22.83;46.74;99054.52;79384;1295;3011616;-59
2023/06/10 05:14:51;;;;;;;9.40;3.10;;;;;;;22.92;46.80;99057.70;78164;1300;3051819;-61
2023/06/10 05:17:18;;;;;;;8.50;3.20;;;;;;;23.04;46.57;99060.13;79614;1298;3013538;-62
2023/06/10 05:19:44;;;;;;;10.80;3.40;;;;;;;23.14;46.92;99057.27;79361;1299;3013164;-62
2023/06/10 05:22:13;;;;;;;10.20;3.40;;;;;;;23.25;46.66;99061.36;78305;1299;3026327;-62
2023/06/10 05:24:41;;;;;;;7.50;3.20;;;;;;;23.32;46.65;99059.97;79405;1295;3011841;-63
2023/06/10 05:27:10;;;;;;;13.40;3.50;;;;;;;23.35;46.58;99061.29;78992;1298;3011718;-58
2023/06/10 05:29:37;;;;;;;10.40;3.80;;;;;;;23.43;46.95;99064.20;79659;1297;3013450;-63
2023/06/10 05:32:05;;;;;;;10.20;3.20;;;;;;;23.51;46.94;99059.30;79451;1297;3011262;-64
2023/06/10 05:34:32;;;;;;;6.10;3.00;;;;;;;23.62;46.71;99059.70;78249;1296;3028849;-62
2023/06/10 05:36:59;;;;;;;12.40;3.70;;;;;;;23.75;46.27;99061.38;79549;1295;3013281;-61
2023/06/10 05:39:25;;;;;;;5.90;3.10;;;;;;;23.87;46.22;99061.91;79468;1298;3011384;-63
2023/06/10 05:41:54;;;;;;;10.20;3.20;;;;;;;23.96;46.37;99057.42;78252;1298;3026385;-64
2023/06/10 05:44:20;;;;;;;8.60;3.50;;;;;;;24.07;45.68;99058.52;79584;1295;3013001;-62
2023/06/10 05:46:47;;;;;;;8.00;3.20;;;;;;;24.17;45.45;99058.21;79540;1298;3011760;-64
2023/06/10 05:49:14;;;;;;;8.90;3.10;;;;;;;24.29;44.92;99053.33;78250;1296;3028681;-62
2023/06/10 05:51:41;;;;;;;8.50;3.40;;;;;;;24.41;44.69;99053.32;79645;1294;3012962;-63
2023/06/10 05:54:07;;;;;;;12.50;3.30;;;;;;;24.48;44.81;99050.61;79503;1294;3011613;-63
2023/06/10 05:56:37;;;;;;;9.90;3.40;;;;;;;24.59;44.46;99051.20;78353;1298;3054532;-61
2023/06/10 05:59:04;;;;;;;8.00;3.40;;;;;;;24.68;44.44;99054.78;79596;1298;3018567;-64
2023/06/10 06:01:32;;;;;;;10.50;3.00;;;;;;;24.73;44.34;99047.86;79577;1298;3013025;-61
2023/06/10 06:04:00;;;;;;;6.70;3.40;;;;;;;24.76;44.48;99046.73;78306;1295;3068771;-62
2023/06/10 06:06:27;;;;;;;9.10;3.20;;;;;;;24.83;44.72;99046.08;79690;1298;3013490;-63
2023/06/10 06:08:54;;;;;;;9.00;3.00;;;;;;;24.91;44.40;99047.95;79480;1295;3011713;-65
2023/06/10 06:11:22;;;;;;;6.90;3.10;;;;;;;25.00;44.26;99043.08;78213;1295;3028187;-61
2023/06/10 06:13:48;;;;;;;5.20;2.60;;;;;;;25.12;44.03;99042.73;79516;1298;3013051;-62
2023/06/10 06:16:15;;;;;;;17.10;3.20;;;;;;;25.16;44.05;99044.42;79563;1297;3011812;-61
2023/06/10 06:18:43;;;;;;;12.70;3.40;;;;;;;25.23;43.50;99040.58;78332;1298;3026316;-62
2023/06/10 06:21:09;;;;;;;6.30;3.00;;;;;;;25.42;43.05;99035.31;79495;1295;3013431;-59
2023/06/10 06:23:37;;;;;;;8.30;3.00;;;;;;;25.55;42.63;99039.14;79554;1295;3011724;-62
2023/06/10 06:26:05;;;;;;;3.70;2.80;;;;;;;25.64;42.04;99036.56;78162;1298;3053488;-63
2023/06/10 06:28:32;;;;;;;5.20;3.00;;;;;;;25.75;42.13;99035.73;79488;1295;3012969;-61
2023/06/10 06:30:58;;;;;;;9.90;3.00;;;;;;;25.81;41.75;99035.77;79434;1300;3011838;-61
2023/06/10 06:33:26;;;;;;;10.70;3.20;;;;;;;25.84;41.54;99034.88;78168;1296;3029225;-65
2023/06/10 06:35:53;;;;;;;5.90;3.00;;;;;;;25.92;41.13;99028.97;79459;1295;3018393;-61
2023/06/10 06:38:20;;;;;;;7.40;2.90;;;;;;;26.08;41.34;99024.52;79480;1299;3011622;-63
2023/06/10 06:40:48;;;;;;;11.20;2.80;;;;;;;26.22;40.10;99024.09;78050;1296;3026323;-63
2023/06/10 06:43:16;;;;;;;7.70;2.70;;;;;;;26.35;39.94;99025.33;79473;1298;3012957;-62
2023/06/10 06:46:05;;;;;;;13.10;3.00;;;;;;;26.45;39.41;99025.29;78235;1295;3053978;-64
2023/06/10 06:48:31;;;;;;;8.50;3.00;;;;;;;26.48;39.39;99023.84;79410;1295;3014009;-61
2023/06/10 06:50:58;;;;;;;7.10;2.90;;;;;;;26.58;39.24;99016.05;79316;1295;3011817;-63
2023/06/10 06:53:26;;;;;;;6.00;3.10;;;;;;;26.68;38.47;99024.88;78204;1298;3048715;-62
2023/06/10 06:55:53;;;;;;;7.60;2.60;;;;;;;26.73;38.02;99017.16;79334;1295;3013227;-60
2023/06/10 06:58:20;;;;;;;4.90;2.50;;;;;;;26.84;37.97;99017.33;79466;1298;3013223;-59
2023/06/10 07:00:48;;;;;;;8.60;2.90;;;;;;;26.92;37.67;99019.55;78291;1298;3027193;-63
2023/06/10 07:03:15;;;;;;;6.00;2.60;;;;;;;27.00;37.76;99017.80;79396;1298;3018385;-60
2023/06/10 07:05:42;;;;;;;7.70;2.90;;;;;;;27.05;37.75;99017.25;79320;1301;3011823;-60
2023/06/10 07:08:11;;;;;;;6.70;3.00;;;;;;;27.18;37.57;99017.66;78198;1295;3049609;-65
2023/06/10 07:10:38;;;;;;;4.40;2.60;;;;;;;27.34;37.19;99015.13;79316;1298;3014522;-65
2023/06/10 07:13:05;;;;;;;12.00;2.60;;;;;;;27.39;36.47;99008.81;79352;1295;3011889;-63
2023/06/10 07:15:33;;;;;;;11.90;2.80;;;;;;;27.39;35.97;99013.88;78191;1296;3054147;-59
2023/06/10 07:18:00;;;;;;;6.80;2.90;;;;;;;27.47;36.27;99010.33;79359;1295;3020788;-63
2023/06/10 07:20:26;;;;;;;7.40;3.00;;;;;;;27.55;36.28;99006.92;79264;1301;3011834;-62
2023/06/10 07:22:54;;;;;;;5.10;2.50;;;;;;;27.61;36.32;99010.67;78059;1300;3028015;-61
2023/06/10 07:25:21;;;;;;;6.80;3.10;;;;;;;27.70;36.06;99011.63;79293;1295;3013202;-59
2023/06/10 07:27:49;;;;;;;7.80;2.80;;;;;;;27.78;36.01;99011.67;79257;1296;3011596;-63
2023/06/10 07:30:17;;;;;;;4.80;2.70;;;;;;;27.79;35.78;99008.45;78100;1295;3053221;-62
2023/06/10 07:32:43;;;;;;;8.20;3.00;;;;;;;27.83;35.80;99011.34;79413;1300;3021338;-60
2023/06/10 07:35:11;;;;;;;5.70;3.30;;;;;;;27.96;35.50;99003.82;79314;1299;3011582;-60
2023/06/10 07:37:39;;;;;;;4.10;2.70;;;;;;;28.07;35.22;99002.38;78043;1300;3049572;-62
2023/06/10 07:40:06;;;;;;;6.80;3.00;;;;;;;28.12;34.99;99000.05;79310;1299;3013472;-61
2023/06/10 07:42:37;;;;;;;6.80;2.90;;;;;;;28.13;35.22;99002.83;79535;1296;3013481;-64
2023/06/10 07:45:05;;;;;;;8.60;3.50;;;;;;;28.24;35.21;99000.95;78125;1295;3052853;-63
2023/06/10 07:47:33;;;;;;;4.20;2.80;;;;;;;28.26;35.37;98997.33;79285;1299;3013309;-64
2023/06/10 07:49:59;;;;;;;8.70;2.70;;;;;;;28.34;34.82;98995.73;79267;1295;3012259;-65
2023/06/10 07:52:28;;;;;;;9.20;2.90;;;;;;;28.45;34.54;98996.66;78197;1299;3050194;-65
2023/06/10 07:54:55;;;;;;;7.90;3.10;;;;;;;28.45;34.15;98995.75;79320;1295;3013041;-63
2023/06/10 07:57:22;;;;;;;7.00;2.90;;;;;;;28.59;34.30;98997.16;79313;1295;3011796;-63
2023/06/10 07:59:50;;;;;;;4.40;2.70;;;;;;;28.73;34.30;98997.55;78129;1300;3053653;-64
2023/06/10 08:02:17;;;;;;;5.60;2.70;;;;;;;28.88;33.13;98995.20;79354;1295;3013532;-63
2023/06/10 08:04:44;;;;;;;6.70;3.00;;;;;;;28.92;33.04;98993.30;79276;1295;3013276;-62
2023/06/10 08:07:11;;;;;;;5.30;2.50;;;;;;;28.98;32.26;98991.55;78088;1295;3050643;-64
2023/06/10 08:09:39;;;;;;;7.10;2.60;;;;;;;29.06;32.10;98994.88;79314;1295;3013250;-64
2023/06/10 08:12:07;;;;;;;5.60;2.20;;;;;;;29.13;32.21;98993.71;79227;1296;3011852;-61
2023/06/10 08:14:36;;;;;;;7.40;2.40;;;;;;;29.32;31.59;98992.77;78065;1296;3051276;-64
2023/06/10 08:17:05;;;;;;;6.60;2.80;;;;;;;29.38;31.72;98985.87;79352;1299;3013538;-64
2023/06/10 08:19:32;;;;;;;8.30;2.60;;;;;;;29.44;30.84;98984.36;79346;1295;3011441;-62
2023/06/10 08:22:00;;;;;;;10.60;2.70;;;;;;;29.58;30.39;98978.73;78150;1300;3050879;-63
2023/06/10 08:24:27;;;;;;;5.80;2.60;;;;;;;29.72;30.14;98981.46;79416;1295;3019358;-61
2023/06/10 08:26:55;;;;;;;7.70;2.60;;;;;;;29.78;30.23;98979.63;79325;1296;3013224;-62
2023/06/10 08:29:23;;;;;;;8.50;2.70;;;;;;;29.72;30.66;98976.92;78221;1300;3052630;-62
2023/06/10 08:31:50;;;;;;;5.60;2.30;;;;;;;29.73;30.16;98976.67;79424;1295;3018990;-63
2023/06/10 08:34:16;;;;;;;7.00;2.40;;;;;;;29.68;29.66;98974.10;79392;1298;3011979;-62
2023/06/10 08:36:45;;;;;;;10.30;2.70;;;;;;;29.61;30.00;98971.11;78001;1295;3027504;-62
2023/06/10 08:39:12;;;;;;;7.80;2.40;;;;;;;29.63;30.09;98972.08;79500;1295;3014578;-63
2023/06/10 08:41:42;;;;;;;9.70;2.50;;;;;;;29.64;30.06;98974.33;79268;1295;3013583;-62
2023/06/10 08:44:20;;;;;;;6.80;2.50;;;;;;;29.76;29.97;98968.91;78057;1300;3052426;-62
2023/06/10 08:46:48;;;;;;;9.20;2.70;;;;;;;29.87;30.15;98969.90;78058;1295;3068959;-61
2023/06/10 08:49:18;;;;;;;7.30;2.40;;;;;;;29.97;29.88;98967.09;79298;1304;3013070;-62
2023/06/10 08:51:51;;;;;;;4.90;2.20;;;;;;;29.99;29.06;98963.66;78693;1296;3012943;-59
2023/06/10 08:54:20;;;;;;;9.80;2.60;;;;;;;29.99;29.39;98958.88;79252;1295;3011762;-63
2023/06/10 08:56:50;;;;;;;4.40;2.30;;;;;;;30.06;29.57;98959.98;78128;1295;3053151;-65
2023/06/10 08:59:17;;;;;;;9.00;2.50;;;;;;;30.16;29.25;98961.45;79336;1296;3013204;-63
2023/06/10 09:01:44;;;;;;;10.20;2.70;;;;;;;30.34;29.00;98960.52;79230;1296;3011623;-63
2023/06/10 09:04:12;;;;;;;6.00;2.60;;;;;;;30.40;28.68;98959.83;78020;1295;3068621;-60
2023/06/10 09:06:40;;;;;;;10.60;2.30;;;;;;;30.38;28.36;98953.50;79250;1300;3019098;-64
2023/06/10 09:09:07;;;;;;;8.50;2.40;;;;;;;30.43;28.32;98954.52;79321;1295;3011840;-59
2023/06/10 09:11:36;;;;;;;6.80;2.40;;;;;;;30.55;28.14;98951.21;78142;1300;3054461;-64
2023/06/10 09:14:02;;;;;;;11.20;2.40;;;;;;;30.48;27.73;98952.48;79327;1295;3013728;-62
2023/06/10 09:16:29;;;;;;;10.70;2.30;;;;;;;30.41;27.47;98955.04;79283;1301;3011771;-62
2023/06/10 09:18:58;;;;;;;5.00;2.40;;;;;;;30.46;27.33;98945.29;78024;1300;3029031;-62
2023/06/10 09:21:25;;;;;;;6.70;2.50;;;;;;;30.59;27.20;98947.18;79383;1296;3013998;-62
2023/06/10 09:23:52;;;;;;;9.50;2.10;;;;;;;30.77;26.89;98943.61;79276;1295;3011643;-63
2023/06/10 09:26:20;;;;;;;7.90;2.40;;;;;;;30.90;26.81;98945.46;78101;1301;3052575;-62
2023/06/10 09:28:50;;;;;;;8.00;2.50;;;;;;;30.80;26.90;98937.65;79312;1300;3013495;-63
2023/06/10 09:31:21;;;;;;;4.90;2.00;;;;;;;30.81;26.50;98939.46;78860;1298;3012971;-63
2023/06/10 09:33:48;;;;;;;5.20;2.50;;;;;;;31.02;26.40;98935.86;79322;1295;3013179;-62
2023/06/10 09:36:24;;;;;;;8.40;2.70;;;;;;;30.92;25.94;98938.17;79304;1295;3011698;-66
2023/06/10 09:38:51;;;;;;;5.30;2.20;;;;;;;30.69;24.77;98933.77;78127;1299;3057273;-64
2023/06/10 09:41:18;;;;;;;7.90;2.10;;;;;;;30.51;24.35;98931.64;79349;1295;3013572;-62
2023/06/10 09:43:46;;;;;;;12.90;2.50;;;;;;;30.53;23.60;98925.14;79263;1295;3011436;-65
2023/06/10 09:46:17;;;;;;;4.60;1.90;;;;;;;30.51;23.74;98930.95;78186;1299;3052600;-64
2023/06/10 09:48:45;;;;;;;4.00;1.80;;;;;;;30.54;23.85;98925.27;79303;1295;3011570;-65
2023/06/10 09:51:14;;;;;;;5.20;2.20;;;;;;;30.67;23.92;98924.40;78051;1296;3068374;-62
2023/06/10 09:53:40;;;;;;;9.10;1.90;;;;;;;30.65;24.85;98924.14;79446;1295;3013275;-64
2023/06/10 09:56:07;;;;;;;6.50;2.10;;;;;;;30.48;25.21;98922.36;79299;1296;3011493;-65
2023/06/10 09:58:36;;;;;;;10.90;2.30;;;;;;;30.55;25.18;98920.73;78046;1295;3028705;-62
2023/06/10 10:01:09;;;;;;;5.80;1.90;;;;;;;30.65;24.96;98919.48;79342;1295;3011870;-62
2023/06/10 10:03:50;;;;;;;;;;;;;;;30.73;24.96;98922.27;78108;1300;3052415;-64
2023/06/10 10:06:19;;;;;;;3.60;1.80;;;;;;;30.90;25.04;98916.34;78173;1295;3068983;-64
2023/06/10 10:08:47;;;;;;;6.70;1.80;;;;;;;31.10;25.49;98916.77;79296;1295;3013493;-64
2023/06/10 10:11:17;;;;;;;7.60;2.30;;;;;;;31.19;25.66;98913.89;79276;1295;3013690;-64
2023/06/10 10:13:46;;;;;;;10.20;2.50;;;;;;;31.14;25.68;98912.77;78038;1295;3053740;-63
2023/06/10 10:16:15;;;;;;;7.90;2.60;;;;;;;30.97;26.13;98914.41;79359;1295;3012867;-63
2023/06/10 10:18:47;;;;;;;6.50;2.20;;;;;;;31.02;26.61;98909.65;78075;1301;3054217;-63
2023/06/10 10:21:13;;;;;;;9.00;2.30;;;;;;;31.08;25.82;98907.63;79370;1296;3011740;-66
2023/06/10 10:24:09;;;;;;;4.60;1.80;;;;;;;30.99;25.91;98899.86;78062;1301;3025881;-62
2023/06/10 10:26:38;;;;;;;5.60;2.10;;;;;;;30.87;26.03;98900.53;78108;1296;3056128;-62
2023/06/10 10:29:11;;;;;;;9.80;2.20;;;;;;;30.81;25.62;98901.39;79402;1295;3012935;-61
2023/06/10 10:31:39;;;;;;;4.00;2.10;;;;;;;30.64;25.14;98891.50;78074;1301;3050748;-64
2023/06/10 10:34:07;;;;;;;6.90;1.80;;;;;;;30.45;24.81;98892.80;79256;1301;3013536;-64
2023/06/10 10:36:35;;;;;;;7.90;2.00;;;;;;;30.39;24.49;98894.45;79328;1300;3011757;-60
2023/06/10 10:39:04;;;;;;;4.20;2.20;;;;;;;30.35;25.15;98893.77;78032;1300;3051506;-62
2023/06/10 10:41:31;;;;;;;5.70;1.80;;;;;;;30.25;25.05;98894.20;79365;1295;3013541;-63
2023/06/10 10:43:58;;;;;;;6.40;2.00;;;;;;;30.31;25.41;98891.56;79223;1295;3011608;-63
2023/06/10 10:46:26;;;;;;;5.30;2.00;;;;;;;30.41;25.14;98891.46;78092;1300;3050285;-64
2023/06/10 10:48:54;;;;;;;6.50;2.00;;;;;;;30.56;25.36;98887.91;79433;1298;3013095;-62
2023/06/10 10:51:23;;;;;;;6.60;2.10;;;;;;;30.61;25.20;98886.40;79410;1296;3011605;-63
2023/06/10 10:54:11;;;;;;;7.30;2.10;;;;;;;30.74;24.97;98890.23;78168;1300;3053073;-64
2023/06/10 10:56:39;;;;;;;8.10;2.00;;;;;;;30.98;25.14;98890.67;78027;1299;3057471;-61
2023/06/10 10:59:07;;;;;;;3.60;1.90;;;;;;;31.20;25.07;98888.04;79310;1295;3013194;-64
2023/06/10 11:01:41;;;;;;;11.60;2.40;;;;;;;31.32;24.97;98888.30;79311;1295;3011505;-65
2023/06/10 11:04:10;;;;;;;4.70;2.10;;;;;;;31.42;25.07;98885.39;78079;1300;3052607;-62
2023/06/10 11:06:37;;;;;;;5.60;2.00;;;;;;;31.52;24.92;98887.62;79311;1300;3013272;-65
2023/06/10 11:09:28;;;;;;;8.80;2.40;;;;;;;31.56;24.57;98887.91;79256;1298;3011691;-62
2023/06/10 11:11:57;;;;;;;3.60;2.00;;;;;;;31.58;24.27;98884.10;78093;1300;3057330;-64
2023/06/10 11:14:29;;;;;;;7.50;2.00;;;;;;;31.56;23.49;98885.38;79300;1295;3013639;-61
2023/06/10 11:16:57;;;;;;;;;;;;;;;31.55;23.08;98879.38;78169;1300;3049906;-64
2023/06/10 11:19:38;;;;;;;5.20;1.80;;;;;;;31.38;22.80;98885.43;79277;1297;3013181;-64
2023/06/10 11:22:07;;;;;;;8.50;2.00;;;;;;;31.36;23.28;98875.63;78281;1295;3068731;-62